Milan, Missouri
Current Conditions -  °F | °C
As of 12:15 PM on Friday 19 Dec 2014 (Local Time) from KIRK Reporting Station
Haze Haze  
Wind Chill: 31°   Ceiling: 900
Heat Index: 31°   Visibility: 5mi
Dew Point: 28°   Wind: 3mph
Humidity: 89%   Direction: NA
Pressure: 30.27"   Gusts: NA
Location:  40.2°N, 93.13°W
Report Text: KIRK 191815Z AUTO VRB03KT 5SM BR OVC009 M01/M02 A3027 RMK AO2 T10061022
Loading
Personal Weather Stations






























Interactive Weather Map New forecast layout! Learn more

10-Day Weather Forecast

Advertisements
Track Severe Weather on mobile